createdAt,value
2023-05-15T00:02:23.757Z,48.91
2023-05-15T00:04:52.419Z,48.93
2023-05-15T00:07:20.774Z,49.09
2023-05-15T00:09:50.214Z,48.94
2023-05-15T00:12:19.946Z,48.92
2023-05-15T00:14:48.029Z,48.86
2023-05-15T00:17:16.030Z,49.14
2023-05-15T00:19:44.429Z,49.51
2023-05-15T00:22:12.491Z,49.63
2023-05-15T00:24:40.570Z,49.83
2023-05-15T00:27:10.616Z,50.17
2023-05-15T00:29:38.790Z,49.99
2023-05-15T00:32:08.346Z,49.92
2023-05-15T00:34:36.881Z,49.80
2023-05-15T00:37:05.394Z,49.79
2023-05-15T00:39:33.467Z,49.66
2023-05-15T00:42:02.345Z,49.37
2023-05-15T00:44:33.407Z,49.58
2023-05-15T00:47:03.375Z,49.85
2023-05-15T00:49:35.493Z,49.42
2023-05-15T00:52:08.364Z,49.46
2023-05-15T00:54:36.505Z,49.43
2023-05-15T00:57:07.157Z,49.44
2023-05-15T00:59:41.066Z,49.81
2023-05-15T01:02:10.493Z,50.42
2023-05-15T01:04:40.529Z,49.72
2023-05-15T01:07:09.423Z,49.87
2023-05-15T01:09:39.451Z,49.84
2023-05-15T01:12:09.058Z,49.94
2023-05-15T01:14:38.871Z,49.93
2023-05-15T01:17:07.668Z,50.14
2023-05-15T01:19:36.638Z,50.49
2023-05-15T01:22:30.440Z,51.00
2023-05-15T01:25:21.712Z,54.70
2023-05-15T01:27:55.717Z,55.18
2023-05-15T01:30:30.159Z,53.58
2023-05-15T01:33:06.526Z,53.93
2023-05-15T01:35:39.715Z,54.92
2023-05-15T01:38:20.356Z,52.28
2023-05-15T01:40:49.997Z,53.24
2023-05-15T01:43:25.364Z,52.15
2023-05-15T01:45:54.510Z,52.30
2023-05-15T01:48:24.598Z,51.44
2023-05-15T01:50:55.333Z,51.07
2023-05-15T01:53:23.807Z,50.92
2023-05-15T01:55:54.740Z,51.03
2023-05-15T01:58:27.217Z,51.19
2023-05-15T02:00:57.890Z,51.40
2023-05-15T02:03:27.023Z,50.99
2023-05-15T02:05:56.644Z,51.08
2023-05-15T02:08:28.760Z,50.47
2023-05-15T02:10:58.721Z,50.87
2023-05-15T02:13:29.468Z,51.34
2023-05-15T02:15:58.165Z,51.01
2023-05-15T02:18:28.547Z,51.12
2023-05-15T02:21:00.992Z,49.55
2023-05-15T02:23:29.477Z,50.68
2023-05-15T02:26:09.772Z,50.87
2023-05-15T02:28:47.321Z,51.79
2023-05-15T02:31:24.676Z,51.97
2023-05-15T02:34:00.161Z,52.49
2023-05-15T02:36:33.503Z,52.96
2023-05-15T02:39:03.082Z,53.31
2023-05-15T02:41:33.778Z,53.93
2023-05-15T02:44:04.395Z,52.54
2023-05-15T02:46:33.230Z,53.15
2023-05-15T02:49:02.654Z,52.06
2023-05-15T02:51:31.222Z,52.76
2023-05-15T02:54:01.126Z,52.28
2023-05-15T02:56:29.524Z,52.43
2023-05-15T02:58:57.705Z,51.79
2023-05-15T03:01:27.149Z,51.40
2023-05-15T03:03:55.712Z,51.11
2023-05-15T03:06:23.816Z,52.18
2023-05-15T03:08:52.078Z,51.74
2023-05-15T03:11:21.464Z,51.37
2023-05-15T03:13:49.544Z,50.95
2023-05-15T03:16:17.563Z,51.16
2023-05-15T03:18:47.325Z,51.86
2023-05-15T03:21:15.555Z,51.63
2023-05-15T03:23:43.725Z,52.34
2023-05-15T03:26:12.052Z,51.77
2023-05-15T03:28:41.732Z,52.27
2023-05-15T03:31:10.573Z,52.02
2023-05-15T03:33:39.480Z,52.10
2023-05-15T03:36:09.322Z,51.68
2023-05-15T03:38:38.072Z,51.94
2023-05-15T03:41:06.562Z,51.84
2023-05-15T03:43:34.598Z,52.07
2023-05-15T03:46:04.649Z,51.46
2023-05-15T03:48:33.092Z,52.40
2023-05-15T03:51:01.353Z,51.82
2023-05-15T03:53:33.526Z,51.72
2023-05-15T03:56:01.880Z,52.09
2023-05-15T03:58:31.992Z,52.68
2023-05-15T04:01:00.127Z,52.96
2023-05-15T04:03:28.434Z,53.24
2023-05-15T04:05:56.448Z,52.83
2023-05-15T04:08:24.503Z,52.83
2023-05-15T04:10:54.626Z,52.59
2023-05-15T04:13:22.915Z,52.18
2023-05-15T04:15:51.025Z,52.27
2023-05-15T04:18:19.370Z,52.60
2023-05-15T04:20:47.372Z,51.59
2023-05-15T04:23:15.326Z,51.27
2023-05-15T04:25:46.577Z,51.80
2023-05-15T04:28:16.123Z,52.10
2023-05-15T04:30:44.376Z,52.30
2023-05-15T04:33:15.009Z,52.23
2023-05-15T04:35:43.241Z,52.13
2023-05-15T04:38:11.814Z,51.97
2023-05-15T04:40:39.885Z,52.41
2023-05-15T04:43:08.326Z,52.34
2023-05-15T04:45:39.085Z,51.88
2023-05-15T04:48:07.637Z,52.76
2023-05-15T04:50:36.882Z,53.00
2023-05-15T04:53:05.485Z,53.11
2023-05-15T04:55:33.805Z,52.70
2023-05-15T04:58:01.919Z,52.70
2023-05-15T05:00:31.106Z,52.61
2023-05-15T05:03:00.632Z,53.01
2023-05-15T05:05:28.947Z,52.94
2023-05-15T05:07:57.243Z,52.86
2023-05-15T05:10:25.282Z,52.79
2023-05-15T05:12:53.368Z,52.57
2023-05-15T05:15:21.729Z,52.62
2023-05-15T05:17:49.837Z,53.38
2023-05-15T05:20:21.535Z,52.64
2023-05-15T05:22:49.861Z,52.18
2023-05-15T05:25:18.423Z,52.66
2023-05-15T05:27:46.504Z,51.98
2023-05-15T05:30:15.184Z,51.71
2023-05-15T05:32:43.503Z,52.28
2023-05-15T05:35:11.609Z,51.88
2023-05-15T05:37:41.621Z,52.23
2023-05-15T05:40:10.826Z,51.34
2023-05-15T05:42:39.189Z,51.36
2023-05-15T05:45:08.611Z,51.02
2023-05-15T05:47:36.799Z,51.20
2023-05-15T05:50:05.851Z,51.04
2023-05-15T05:52:33.884Z,51.02
2023-05-15T05:55:03.596Z,50.95
2023-05-15T05:57:32.002Z,51.39
2023-05-15T06:00:00.128Z,51.19
2023-05-15T06:02:28.575Z,51.31
2023-05-15T06:04:57.502Z,51.77
2023-05-15T06:07:25.581Z,51.89
2023-05-15T06:09:53.559Z,51.36
2023-05-15T06:12:25.422Z,51.08
2023-05-15T06:14:53.424Z,51.15
2023-05-15T06:17:21.896Z,51.17
2023-05-15T06:19:49.942Z,50.88
2023-05-15T06:22:18.032Z,50.17
2023-05-15T06:24:46.476Z,50.28
2023-05-15T06:27:14.524Z,50.72
2023-05-15T06:29:43.977Z,50.08
2023-05-15T06:32:12.870Z,49.93
2023-05-15T06:34:40.855Z,49.83
2023-05-15T06:37:09.233Z,49.85
2023-05-15T06:39:37.645Z,49.64
2023-05-15T06:42:06.729Z,50.35
2023-05-15T06:44:36.544Z,50.01
2023-05-15T06:47:07.453Z,49.66
2023-05-15T06:49:35.589Z,49.59
2023-05-15T06:52:03.663Z,48.63
2023-05-15T06:54:31.888Z,48.72
2023-05-15T06:57:00.128Z,48.58
2023-05-15T06:59:28.474Z,48.78
2023-05-15T07:01:56.992Z,48.46
2023-05-15T07:04:26.386Z,48.28
2023-05-15T07:06:54.455Z,48.19
2023-05-15T07:09:22.745Z,48.08
2023-05-15T07:11:50.813Z,47.54
2023-05-15T07:14:19.932Z,47.09
2023-05-15T07:16:48.291Z,46.93
2023-05-15T07:19:18.891Z,46.41
2023-05-15T07:21:48.346Z,46.67
2023-05-15T07:24:16.694Z,46.69
2023-05-15T07:26:57.641Z,46.33
2023-05-15T07:29:27.077Z,46.63
2023-05-15T07:31:55.293Z,46.60
2023-05-15T07:34:23.594Z,46.29
2023-05-15T07:36:53.306Z,46.19
2023-05-15T07:39:21.335Z,46.43
2023-05-15T07:41:49.344Z,46.07
2023-05-15T07:44:17.623Z,45.85
2023-05-15T07:46:46.145Z,45.66
2023-05-15T07:49:14.268Z,45.62
2023-05-15T07:51:42.826Z,44.91
2023-05-15T07:54:12.488Z,44.94
2023-05-15T07:56:41.512Z,44.50
2023-05-15T07:59:09.891Z,44.45
2023-05-15T08:01:37.932Z,44.73
2023-05-15T08:04:08.970Z,44.10
2023-05-15T08:06:38.142Z,44.42
2023-05-15T08:09:06.544Z,44.21
2023-05-15T08:11:36.472Z,44.31
2023-05-15T08:14:04.481Z,43.35
2023-05-15T08:16:32.816Z,44.17
2023-05-15T08:19:04.686Z,43.44
2023-05-15T08:21:33.284Z,43.89
2023-05-15T08:24:01.864Z,43.98
2023-05-15T08:26:30.099Z,43.51
2023-05-15T08:28:59.691Z,43.17
2023-05-15T08:31:28.025Z,42.54
2023-05-15T08:33:57.161Z,41.74
2023-05-15T08:36:25.648Z,42.32
2023-05-15T08:38:53.741Z,43.09
2023-05-15T08:41:40.646Z,42.85
2023-05-15T08:44:11.865Z,41.65
2023-05-15T08:46:40.114Z,41.67
2023-05-15T08:49:14.163Z,42.18
2023-05-15T08:51:42.688Z,39.89
2023-05-15T08:54:11.647Z,41.00
2023-05-15T08:56:40.103Z,41.66
2023-05-15T08:59:08.648Z,40.57
2023-05-15T09:01:40.929Z,39.12
2023-05-15T09:04:09.536Z,40.45
2023-05-15T09:06:39.309Z,40.91
2023-05-15T09:09:07.864Z,41.00
2023-05-15T09:11:36.950Z,40.27
2023-05-15T09:14:04.986Z,39.34
2023-05-15T09:16:33.073Z,40.50
2023-05-15T09:19:04.121Z,40.48
2023-05-15T09:21:32.483Z,39.74
2023-05-15T09:24:17.044Z,40.51
2023-05-15T09:26:46.329Z,37.30
2023-05-15T09:29:18.738Z,40.06
2023-05-15T09:31:48.365Z,39.38
2023-05-15T09:34:18.033Z,39.62
2023-05-15T09:36:46.117Z,38.20
2023-05-15T09:39:14.631Z,38.22
2023-05-15T09:41:45.045Z,38.99
2023-05-15T09:44:23.230Z,39.19
2023-05-15T09:46:52.976Z,38.07
2023-05-15T09:49:22.577Z,39.04
2023-05-15T09:51:51.448Z,38.37
2023-05-15T09:54:20.318Z,37.82
2023-05-15T09:56:48.980Z,38.22
2023-05-15T09:59:21.684Z,37.21
2023-05-15T10:01:51.580Z,35.77
2023-05-15T10:04:21.612Z,37.02
2023-05-15T10:06:52.259Z,36.82
2023-05-15T10:09:20.605Z,35.82
2023-05-15T10:11:52.982Z,36.29
2023-05-15T10:14:24.420Z,33.82
2023-05-15T10:16:52.623Z,36.47
2023-05-15T10:19:23.667Z,35.41
2023-05-15T10:21:57.140Z,35.84
2023-05-15T10:24:29.847Z,35.17
2023-05-15T10:26:58.944Z,36.68
2023-05-15T10:29:29.978Z,36.25
2023-05-15T10:32:01.664Z,36.66
2023-05-15T10:34:30.172Z,35.21
2023-05-15T10:37:01.497Z,35.83
2023-05-15T10:39:31.073Z,35.20
2023-05-15T10:42:00.809Z,36.03
2023-05-15T10:44:29.263Z,35.75
2023-05-15T10:46:57.489Z,35.68
2023-05-15T10:49:26.236Z,34.90
2023-05-15T10:51:54.529Z,34.80
2023-05-15T10:54:24.337Z,35.44
2023-05-15T10:56:52.954Z,35.98
2023-05-15T10:59:21.212Z,35.40
2023-05-15T11:01:50.859Z,34.64
2023-05-15T11:04:20.277Z,35.94
2023-05-15T11:06:51.779Z,36.34
2023-05-15T11:09:41.304Z,36.26
2023-05-15T11:12:11.768Z,36.33
2023-05-15T11:14:43.354Z,37.85
2023-05-15T11:17:12.768Z,36.91
2023-05-15T11:20:01.426Z,37.24
2023-05-15T11:22:32.469Z,36.99
2023-05-15T11:25:03.452Z,38.06
2023-05-15T11:27:33.713Z,37.77
2023-05-15T11:30:13.418Z,38.03
2023-05-15T11:32:53.495Z,37.35
2023-05-15T11:35:24.303Z,35.82
2023-05-15T11:37:55.202Z,36.85
2023-05-15T11:40:27.209Z,37.55
2023-05-15T11:43:07.222Z,36.46
2023-05-15T11:45:38.865Z,34.45
2023-05-15T11:48:09.835Z,34.21
2023-05-15T11:50:42.745Z,34.92
2023-05-15T11:53:11.365Z,35.63
2023-05-15T11:55:42.418Z,35.29
2023-05-15T11:58:15.298Z,32.52
2023-05-15T12:00:44.940Z,32.00
2023-05-15T12:03:21.718Z,34.48
2023-05-15T12:05:59.206Z,31.70
2023-05-15T12:08:33.353Z,34.60
2023-05-15T12:11:03.749Z,32.35
2023-05-15T12:13:32.959Z,33.45
2023-05-15T12:16:03.379Z,32.99
2023-05-15T12:18:33.295Z,32.99
2023-05-15T12:21:01.472Z,33.18
2023-05-15T12:23:29.756Z,33.97
2023-05-15T12:26:02.368Z,34.02
2023-05-15T12:28:36.134Z,32.80
2023-05-15T12:31:06.303Z,33.79
2023-05-15T12:33:34.539Z,32.89
2023-05-15T12:36:04.960Z,33.29
2023-05-15T12:38:34.947Z,33.30
2023-05-15T12:41:04.507Z,33.14
2023-05-15T12:43:33.321Z,33.35
2023-05-15T12:46:02.298Z,32.24
2023-05-15T12:48:32.254Z,32.37
2023-05-15T12:51:07.251Z,32.82
2023-05-15T12:53:39.891Z,32.87
2023-05-15T12:56:21.950Z,34.32
2023-05-15T12:58:56.745Z,34.38
2023-05-15T13:01:24.857Z,35.68
2023-05-15T13:03:54.181Z,35.94
2023-05-15T13:06:24.056Z,35.60
2023-05-15T13:08:52.739Z,35.68
2023-05-15T13:11:31.454Z,36.24
2023-05-15T13:16:51.259Z,36.03
2023-05-15T13:19:19.602Z,36.02
2023-05-15T13:21:50.839Z,35.22
2023-05-15T13:24:19.402Z,35.31
2023-05-15T13:26:48.922Z,36.21
2023-05-15T13:29:17.005Z,36.40
2023-05-15T13:31:45.533Z,37.09
2023-05-15T13:34:13.946Z,37.08
2023-05-15T13:36:42.424Z,36.99
2023-05-15T13:39:10.902Z,37.33
2023-05-15T13:41:39.183Z,37.28
2023-05-15T13:44:09.001Z,37.35
2023-05-15T13:46:37.691Z,36.92
2023-05-15T13:49:07.021Z,37.01
2023-05-15T13:51:35.707Z,36.75
2023-05-15T13:54:04.498Z,36.39
2023-05-15T13:56:32.664Z,37.07
2023-05-15T13:59:00.832Z,37.11
2023-05-15T14:01:30.713Z,36.90
2023-05-15T14:03:59.764Z,36.62
2023-05-15T14:06:28.458Z,36.44
2023-05-15T14:08:56.538Z,36.44
2023-05-15T14:11:25.158Z,36.38
2023-05-15T14:13:53.365Z,35.96
2023-05-15T14:16:21.589Z,36.13
2023-05-15T14:18:51.534Z,36.21
2023-05-15T14:21:19.793Z,35.82
2023-05-15T14:23:47.956Z,35.00
2023-05-15T14:26:16.399Z,33.40
2023-05-15T14:28:44.560Z,33.79
2023-05-15T14:31:12.926Z,33.84
2023-05-15T14:33:41.933Z,33.46
2023-05-15T14:36:11.452Z,33.04
2023-05-15T14:38:39.945Z,32.73
2023-05-15T14:44:07.375Z,33.31
2023-05-15T14:46:36.479Z,34.34
2023-05-15T14:49:05.121Z,34.73
2023-05-15T14:51:34.769Z,35.28
2023-05-15T14:54:05.011Z,35.26
2023-05-15T14:56:33.474Z,34.69
2023-05-15T14:59:01.879Z,33.36
2023-05-15T15:01:30.517Z,33.09
2023-05-15T15:03:58.896Z,32.88
2023-05-15T15:06:27.132Z,33.94
2023-05-15T15:08:56.930Z,33.18
2023-05-15T15:11:24.933Z,34.19
2023-05-15T15:13:53.037Z,34.54
2023-05-15T15:16:21.738Z,33.87
2023-05-15T15:18:49.906Z,34.53
2023-05-15T15:21:17.989Z,34.70
2023-05-15T15:23:48.273Z,34.52
2023-05-15T15:26:18.108Z,34.99
2023-05-15T15:28:46.479Z,34.95
2023-05-15T15:31:15.569Z,34.93
2023-05-15T15:33:46.461Z,34.60
2023-05-15T15:36:14.820Z,33.18
2023-05-15T15:38:43.823Z,34.09
2023-05-15T15:41:12.267Z,34.49
2023-05-15T15:43:42.041Z,34.35
2023-05-15T15:46:11.828Z,34.66
2023-05-15T15:48:48.735Z,35.10
2023-05-15T15:51:17.416Z,34.30
2023-05-15T15:53:45.694Z,34.24
2023-05-15T15:56:13.657Z,34.21
2023-05-15T15:58:43.033Z,34.39
2023-05-15T16:01:11.390Z,34.64
2023-05-15T16:03:39.849Z,35.10
2023-05-15T16:06:07.978Z,35.52
2023-05-15T16:08:36.263Z,35.47
2023-05-15T16:11:04.666Z,35.46
2023-05-15T16:13:33.041Z,35.86
2023-05-15T16:16:03.673Z,36.03
2023-05-15T16:18:32.005Z,35.98
2023-05-15T16:21:00.049Z,36.14
2023-05-15T16:23:30.308Z,36.17
2023-05-15T16:25:58.547Z,36.16
2023-05-15T16:28:26.581Z,36.41
2023-05-15T16:30:55.127Z,36.00
2023-05-15T16:33:25.065Z,35.95
2023-05-15T16:35:53.128Z,36.03
2023-05-15T16:38:21.207Z,36.09
2023-05-15T16:40:50.278Z,36.15
2023-05-15T16:43:18.349Z,36.16
2023-05-15T16:45:46.415Z,36.27
2023-05-15T16:48:14.822Z,36.34
2023-05-15T16:50:44.319Z,36.47
2023-05-15T16:53:12.507Z,36.41
2023-05-15T16:55:41.357Z,35.58
2023-05-15T16:58:09.607Z,34.73
2023-05-15T17:00:38.187Z,34.45
2023-05-15T17:03:07.244Z,34.37
2023-05-15T17:05:35.603Z,34.12
2023-05-15T17:08:05.634Z,34.25
2023-05-15T17:10:33.949Z,33.87
2023-05-15T17:13:01.890Z,35.51
2023-05-15T17:15:30.295Z,35.75
2023-05-15T17:17:58.849Z,35.57
2023-05-15T17:20:27.395Z,35.87
2023-05-15T17:22:55.568Z,36.09
2023-05-15T17:25:25.739Z,36.22
2023-05-15T17:27:54.092Z,36.16
2023-05-15T17:30:22.632Z,35.86
2023-05-15T17:32:53.957Z,35.34
2023-05-15T17:35:22.823Z,34.82
2023-05-15T17:37:51.725Z,34.55
2023-05-15T17:40:20.398Z,34.89
2023-05-15T17:42:49.834Z,35.10
2023-05-15T17:45:21.784Z,34.64
2023-05-15T17:48:02.610Z,35.36
2023-05-15T17:50:39.062Z,35.32
2023-05-15T17:53:07.472Z,35.72
2023-05-15T17:55:36.281Z,35.77
2023-05-15T17:58:06.101Z,36.07
2023-05-15T18:00:34.476Z,36.08
2023-05-15T18:03:02.967Z,36.02
2023-05-15T18:05:31.171Z,36.24
2023-05-15T18:08:02.013Z,36.31
2023-05-15T18:10:30.663Z,36.48
2023-05-15T18:12:59.181Z,36.33
2023-05-15T18:15:31.069Z,36.93
2023-05-15T18:18:00.065Z,37.06
2023-05-15T18:20:28.161Z,37.47
2023-05-15T18:22:56.370Z,37.27
2023-05-15T18:25:25.871Z,37.47
2023-05-15T18:27:54.689Z,37.37
2023-05-15T18:30:22.746Z,37.36
2023-05-15T18:32:52.455Z,38.23
2023-05-15T18:35:20.857Z,38.00
2023-05-15T18:37:48.847Z,38.01
2023-05-15T18:40:17.636Z,38.19
2023-05-15T18:42:45.646Z,39.20
2023-05-15T18:45:14.318Z,39.99
2023-05-15T18:47:42.732Z,40.26
2023-05-15T18:50:13.760Z,40.48
2023-05-15T18:52:41.884Z,39.95
2023-05-15T18:55:11.253Z,40.22
2023-05-15T18:57:39.900Z,39.37
2023-05-15T19:00:09.135Z,39.95
2023-05-15T19:02:40.225Z,40.40
2023-05-15T19:05:10.251Z,40.86
2023-05-15T19:07:41.254Z,40.38
2023-05-15T19:10:10.849Z,40.69
2023-05-15T19:12:39.131Z,40.40
2023-05-15T19:15:08.686Z,41.24
2023-05-15T19:17:38.223Z,41.35
2023-05-15T19:20:08.592Z,41.07
2023-05-15T19:22:36.816Z,40.15
2023-05-15T19:25:07.247Z,40.42
2023-05-15T19:27:35.789Z,40.61
2023-05-15T19:30:04.180Z,42.15
2023-05-15T19:32:32.276Z,41.04
2023-05-15T19:35:00.985Z,41.48
2023-05-15T19:37:29.055Z,41.15
2023-05-15T19:39:57.264Z,42.18
2023-05-15T19:42:27.186Z,42.25
2023-05-15T19:44:55.605Z,43.29
2023-05-15T19:47:23.782Z,43.69
2023-05-15T19:49:52.241Z,42.94
2023-05-15T19:52:20.423Z,42.65
2023-05-15T19:54:48.390Z,42.43
2023-05-15T19:57:17.283Z,43.36
2023-05-15T19:59:46.688Z,43.66
2023-05-15T20:02:15.102Z,44.05
2023-05-15T20:04:45.065Z,44.25
2023-05-15T20:07:13.313Z,43.50
2023-05-15T20:09:41.544Z,44.51
2023-05-15T20:12:09.892Z,44.29
2023-05-15T20:14:38.226Z,43.63
2023-05-15T20:17:09.972Z,43.11
2023-05-15T20:19:38.381Z,43.29
2023-05-15T20:22:06.647Z,45.38
2023-05-15T20:24:35.564Z,44.48
2023-05-15T20:27:04.388Z,43.46
2023-05-15T20:29:32.621Z,44.88
2023-05-15T20:32:00.969Z,43.94
2023-05-15T20:34:33.526Z,44.01
2023-05-15T20:37:02.707Z,43.50
2023-05-15T20:39:31.142Z,43.81
2023-05-15T20:41:59.406Z,43.67
2023-05-15T20:44:27.525Z,45.12
2023-05-15T20:46:56.173Z,44.94
2023-05-15T20:49:24.292Z,46.95
2023-05-15T20:51:53.912Z,47.09
2023-05-15T20:54:22.489Z,45.95
2023-05-15T20:56:52.123Z,47.20
2023-05-15T20:59:20.509Z,45.75
2023-05-15T21:01:51.562Z,45.29
2023-05-15T21:04:20.332Z,45.72
2023-05-15T21:06:49.206Z,45.47
2023-05-15T21:09:18.771Z,45.27
2023-05-15T21:11:47.276Z,45.06
2023-05-15T21:14:15.656Z,45.63
2023-05-15T21:16:45.763Z,46.90
2023-05-15T21:19:18.952Z,46.98
2023-05-15T21:21:47.170Z,47.38
2023-05-15T21:24:15.671Z,47.63
2023-05-15T21:26:45.842Z,47.36
2023-05-15T21:29:13.995Z,47.83
2023-05-15T21:31:43.125Z,47.87
2023-05-15T21:34:11.488Z,47.50
2023-05-15T21:36:47.287Z,48.80
2023-05-15T21:39:15.614Z,47.44
2023-05-15T21:41:45.036Z,47.91
2023-05-15T21:44:14.149Z,47.56
2023-05-15T21:46:42.867Z,48.63
2023-05-15T21:49:10.979Z,47.68
2023-05-15T21:51:48.297Z,47.26
2023-05-15T21:54:16.802Z,49.21
2023-05-15T21:56:55.096Z,46.73
2023-05-15T21:59:24.391Z,46.48
2023-05-15T22:01:52.747Z,46.80
2023-05-15T22:04:21.570Z,46.38
2023-05-15T22:06:49.855Z,48.01
2023-05-15T22:09:17.962Z,47.61
2023-05-15T22:11:47.688Z,47.78
2023-05-15T22:14:15.868Z,50.08
2023-05-15T22:16:44.689Z,48.10
2023-05-15T22:19:21.471Z,47.59
2023-05-15T22:22:00.316Z,48.83
2023-05-15T22:24:28.642Z,48.06
2023-05-15T22:26:57.946Z,47.94
2023-05-15T22:29:26.618Z,49.21
2023-05-15T22:31:55.508Z,47.67
2023-05-15T22:34:25.417Z,49.75
2023-05-15T22:39:35.687Z,47.65
2023-05-15T22:42:07.259Z,48.33
2023-05-15T22:44:50.955Z,48.65
2023-05-15T22:47:49.356Z,49.29
2023-05-15T22:50:35.548Z,48.16
2023-05-15T22:53:04.155Z,51.15
2023-05-15T22:55:32.674Z,48.46
2023-05-15T22:58:33.105Z,48.62
2023-05-15T23:01:05.141Z,51.54
2023-05-15T23:03:33.274Z,50.24
2023-05-15T23:06:02.149Z,50.25
2023-05-15T23:08:47.118Z,48.77
2023-05-15T23:11:32.017Z,50.74
2023-05-15T23:14:00.561Z,49.57
2023-05-15T23:17:07.074Z,48.83
2023-05-15T23:22:43.319Z,50.46
2023-05-15T23:25:12.027Z,51.39
2023-05-15T23:28:19.417Z,49.07
2023-05-15T23:30:47.651Z,52.76
